createdAt,value
2022-10-04T00:01:45.766Z,21.40
2022-10-04T00:06:58.371Z,21.40
2022-10-04T00:12:04.163Z,21.40
2022-10-04T00:17:24.812Z,21.40
2022-10-04T00:22:30.372Z,21.40
2022-10-04T00:27:39.086Z,21.40
2022-10-04T00:32:42.516Z,21.50
2022-10-04T00:38:01.411Z,21.60
2022-10-04T00:43:24.552Z,21.60
2022-10-04T00:48:47.207Z,21.60
2022-10-04T00:54:07.211Z,21.60
2022-10-04T00:59:27.920Z,21.50
2022-10-04T01:04:41.778Z,21.50
2022-10-04T01:10:00.241Z,21.50
2022-10-04T01:15:14.709Z,21.50
2022-10-04T01:20:37.385Z,21.50
2022-10-04T01:25:49.001Z,21.50
2022-10-04T01:30:55.401Z,21.40
2022-10-04T01:35:58.979Z,21.40
2022-10-04T01:41:06.256Z,21.40
2022-10-04T01:46:23.576Z,21.30
2022-10-04T01:51:31.156Z,21.40
2022-10-04T01:56:44.178Z,21.40
2022-10-04T02:01:50.456Z,21.30
2022-10-04T02:06:57.119Z,21.30
2022-10-04T02:12:00.983Z,21.30
2022-10-04T02:17:10.703Z,21.30
2022-10-04T02:22:14.463Z,21.30
2022-10-04T02:27:18.107Z,21.20
2022-10-04T02:32:40.543Z,21.20
2022-10-04T02:37:45.288Z,21.20
2022-10-04T02:42:48.707Z,21.20
2022-10-04T02:47:58.647Z,21.20
2022-10-04T02:53:11.815Z,21.20
2022-10-04T02:58:18.613Z,21.20
2022-10-04T03:03:34.782Z,21.10
2022-10-04T03:08:46.835Z,21.20
2022-10-04T03:14:09.187Z,21.10
2022-10-04T03:19:16.248Z,21.10
2022-10-04T03:24:25.989Z,21.10
2022-10-04T03:29:35.612Z,21.10
2022-10-04T03:34:42.100Z,21.10
2022-10-04T03:40:08.848Z,21.10
2022-10-04T03:45:16.823Z,21.00
2022-10-04T03:50:26.051Z,21.10
2022-10-04T03:55:37.340Z,21.00
2022-10-04T04:00:52.452Z,21.00
2022-10-04T04:06:03.710Z,21.00
2022-10-04T04:11:29.548Z,21.00
2022-10-04T04:16:40.100Z,21.00
2022-10-04T04:21:44.857Z,21.00
2022-10-04T04:26:55.430Z,21.00
2022-10-04T04:32:09.674Z,20.90
2022-10-04T04:37:13.337Z,20.90
2022-10-04T04:42:23.932Z,20.90
2022-10-04T04:47:36.544Z,20.90
2022-10-04T04:52:41.599Z,20.90
2022-10-04T04:57:50.034Z,20.90
2022-10-04T05:02:58.797Z,20.90
2022-10-04T05:08:25.525Z,20.80
2022-10-04T05:13:40.270Z,20.80
2022-10-04T05:18:46.034Z,20.90
2022-10-04T05:23:50.107Z,21.00
2022-10-04T05:29:00.532Z,21.10
2022-10-04T05:34:27.439Z,21.30
2022-10-04T05:39:41.304Z,21.50
2022-10-04T05:44:58.543Z,21.60
2022-10-04T05:50:03.802Z,21.70
2022-10-04T05:55:29.034Z,21.70
2022-10-04T06:00:47.264Z,21.70
2022-10-04T06:05:55.629Z,21.60
2022-10-04T06:11:20.909Z,21.60
2022-10-04T06:16:45.046Z,21.60
2022-10-04T06:22:01.313Z,21.60
2022-10-04T06:27:11.362Z,21.60
2022-10-04T06:32:24.386Z,21.60
2022-10-04T06:37:49.431Z,21.60
2022-10-04T06:43:34.496Z,21.60
2022-10-04T06:48:47.126Z,21.60
2022-10-04T06:54:20.635Z,21.70
2022-10-04T06:59:53.219Z,21.70
2022-10-04T07:05:08.507Z,21.80
2022-10-04T07:10:20.962Z,21.80
2022-10-04T07:15:30.863Z,21.90
2022-10-04T07:20:37.039Z,21.90
2022-10-04T07:25:54.206Z,22.00
2022-10-04T07:31:15.583Z,22.00
2022-10-04T07:36:28.397Z,22.00
2022-10-04T07:41:40.016Z,22.10
2022-10-04T07:46:43.595Z,22.10
2022-10-04T07:51:53.066Z,22.00
2022-10-04T07:57:02.027Z,22.10
2022-10-04T08:02:28.934Z,22.00
2022-10-04T08:08:03.889Z,22.00
2022-10-04T08:13:16.313Z,22.00
2022-10-04T08:18:56.058Z,22.00
2022-10-04T08:24:06.350Z,22.00
2022-10-04T08:29:37.699Z,22.00
2022-10-04T08:35:02.260Z,22.10
2022-10-04T08:40:12.863Z,22.00
2022-10-04T08:45:32.775Z,22.00
2022-10-04T08:51:06.683Z,22.00
2022-10-04T08:56:25.146Z,22.00
2022-10-04T09:01:46.228Z,22.10
2022-10-04T09:06:55.251Z,22.10
2022-10-04T09:12:20.426Z,22.10
2022-10-04T09:18:01.890Z,22.20
2022-10-04T09:23:23.853Z,22.30
2022-10-04T09:28:39.484Z,22.30
2022-10-04T09:33:55.760Z,22.30
2022-10-04T09:39:29.057Z,22.30
2022-10-04T09:44:40.566Z,22.20
2022-10-04T09:50:19.182Z,22.30
2022-10-04T09:55:49.824Z,22.30
2022-10-04T10:01:51.306Z,22.20
2022-10-04T10:07:11.056Z,22.20
2022-10-04T10:12:45.378Z,22.30
2022-10-04T10:18:28.298Z,22.20
2022-10-04T10:24:00.165Z,22.30
2022-10-04T10:29:41.559Z,22.20
2022-10-04T10:35:04.411Z,22.20
2022-10-04T10:40:33.640Z,22.20
2022-10-04T10:45:47.576Z,22.20
2022-10-04T10:51:21.478Z,22.30
2022-10-04T10:56:51.926Z,22.40
2022-10-04T11:02:05.980Z,22.50
2022-10-04T11:07:20.376Z,22.40
2022-10-04T11:12:35.950Z,22.40
2022-10-04T11:18:07.409Z,22.60
2022-10-04T11:23:49.414Z,22.60
2022-10-04T11:29:26.802Z,22.70
2022-10-04T11:35:05.528Z,22.70
2022-10-04T11:40:24.586Z,22.80
2022-10-04T11:45:44.084Z,22.70
2022-10-04T11:51:13.023Z,22.70
2022-10-04T11:56:35.565Z,22.60
2022-10-04T12:01:50.417Z,22.60
2022-10-04T12:07:24.866Z,22.70
2022-10-04T12:12:40.543Z,22.70
2022-10-04T12:18:22.134Z,22.80
2022-10-04T12:23:28.290Z,22.90
2022-10-04T12:29:11.800Z,22.90
2022-10-04T12:34:41.196Z,23.00
2022-10-04T12:39:48.478Z,22.90
2022-10-04T12:45:04.058Z,22.90
2022-10-04T12:50:22.826Z,23.00
2022-10-04T12:56:11.484Z,23.00
2022-10-04T13:01:41.355Z,23.00
2022-10-04T13:06:57.507Z,23.10
2022-10-04T13:12:21.327Z,23.10
2022-10-04T13:17:47.019Z,23.20
2022-10-04T13:22:58.629Z,23.20
2022-10-04T13:28:17.197Z,23.30
2022-10-04T13:34:17.246Z,23.30
2022-10-04T13:39:43.433Z,23.30
2022-10-04T13:44:50.619Z,23.40
2022-10-04T13:50:26.620Z,23.40
2022-10-04T13:56:07.984Z,23.30
2022-10-04T14:01:20.379Z,23.30
2022-10-04T14:06:27.204Z,23.30
2022-10-04T14:11:45.815Z,23.30
2022-10-04T14:17:13.850Z,23.30
2022-10-04T14:22:29.473Z,23.30
2022-10-04T14:28:10.919Z,23.30
2022-10-04T14:33:40.310Z,23.20
2022-10-04T14:39:01.584Z,23.10
2022-10-04T14:44:28.214Z,23.10
2022-10-04T14:50:01.222Z,23.20
2022-10-04T14:55:17.111Z,23.10
2022-10-04T15:00:24.110Z,23.10
2022-10-04T15:06:04.978Z,23.00
2022-10-04T15:11:18.055Z,23.00
2022-10-04T15:16:53.287Z,23.00
2022-10-04T15:22:33.628Z,23.00
2022-10-04T15:27:47.689Z,23.10
2022-10-04T15:33:28.980Z,23.10
2022-10-04T15:38:49.552Z,23.10
2022-10-04T15:44:12.134Z,23.10
2022-10-04T15:49:50.344Z,23.00
2022-10-04T15:55:28.076Z,23.00
2022-10-04T16:00:57.487Z,22.90
2022-10-04T16:06:17.777Z,22.90
2022-10-04T16:11:30.023Z,22.90
2022-10-04T16:16:44.215Z,22.80
2022-10-04T16:22:09.363Z,22.80
2022-10-04T16:27:39.644Z,22.70
2022-10-04T16:33:29.209Z,22.70
2022-10-04T16:39:14.302Z,22.70
2022-10-04T16:45:06.808Z,22.60
2022-10-04T16:50:50.829Z,22.60
2022-10-04T16:56:02.845Z,22.50
2022-10-04T17:01:26.150Z,22.50
2022-10-04T17:06:49.619Z,22.40
2022-10-04T17:12:08.053Z,22.40
2022-10-04T17:17:37.976Z,22.30
2022-10-04T17:22:53.048Z,22.30
2022-10-04T17:28:17.298Z,22.30
2022-10-04T17:33:36.826Z,22.20
2022-10-04T17:38:47.825Z,22.20
2022-10-04T17:44:11.704Z,22.20
2022-10-04T17:50:06.698Z,22.20
2022-10-04T17:55:19.137Z,22.10
2022-10-04T18:00:31.487Z,22.20
2022-10-04T18:05:47.983Z,22.20
2022-10-04T18:11:04.887Z,22.20
2022-10-04T18:16:24.806Z,22.10
2022-10-04T18:21:33.000Z,22.10
2022-10-04T18:27:00.985Z,22.10
2022-10-04T18:32:40.084Z,22.10
2022-10-04T18:37:50.512Z,22.20
2022-10-04T18:43:08.547Z,22.20
2022-10-04T18:48:45.206Z,22.20
2022-10-04T18:54:39.329Z,22.20
2022-10-04T19:00:47.395Z,22.10
2022-10-04T19:06:04.399Z,22.10
2022-10-04T19:11:17.697Z,22.30
2022-10-04T19:17:07.128Z,22.20
2022-10-04T19:22:47.331Z,22.20
2022-10-04T19:28:17.948Z,22.10
2022-10-04T19:33:45.204Z,22.20
2022-10-04T19:39:12.717Z,22.10
2022-10-04T19:44:49.327Z,22.10
2022-10-04T19:50:21.391Z,22.10
2022-10-04T19:56:04.424Z,22.00
2022-10-04T20:01:17.594Z,22.00
2022-10-04T20:06:27.937Z,22.00
2022-10-04T20:11:41.236Z,22.00
2022-10-04T20:16:55.312Z,21.90
2022-10-04T20:22:37.200Z,21.90
2022-10-04T20:27:48.538Z,21.80
2022-10-04T20:32:58.322Z,21.80
2022-10-04T20:38:31.130Z,21.70
2022-10-04T20:44:02.809Z,21.70
2022-10-04T20:49:17.695Z,21.70
2022-10-04T20:54:32.487Z,21.70
2022-10-04T20:59:41.694Z,21.70
2022-10-04T21:04:47.755Z,21.70
2022-10-04T21:09:54.280Z,21.60
2022-10-04T21:15:27.229Z,21.70
2022-10-04T21:20:50.476Z,21.70
2022-10-04T21:26:31.781Z,21.70
2022-10-04T21:31:35.469Z,21.70
2022-10-04T21:36:42.812Z,21.70
2022-10-04T21:41:54.884Z,21.70
2022-10-04T21:47:00.991Z,21.70
2022-10-04T21:52:06.068Z,21.70
2022-10-04T21:57:12.251Z,21.70
2022-10-04T22:02:15.943Z,21.60
2022-10-04T22:07:21.946Z,21.60
2022-10-04T22:12:30.373Z,21.60
2022-10-04T22:17:39.741Z,21.60
2022-10-04T22:22:43.972Z,21.60
2022-10-04T22:27:48.255Z,21.50
2022-10-04T22:32:55.487Z,21.60
2022-10-04T22:38:03.023Z,21.60
2022-10-04T22:43:13.436Z,21.60
2022-10-04T22:48:20.142Z,21.60
2022-10-04T22:53:28.628Z,21.50
2022-10-04T22:58:32.355Z,21.40
2022-10-04T23:03:36.628Z,21.40
2022-10-04T23:08:43.797Z,21.40
2022-10-04T23:13:47.214Z,21.30
2022-10-04T23:19:03.011Z,21.30
2022-10-04T23:24:21.461Z,21.30
2022-10-04T23:29:35.006Z,21.30
2022-10-04T23:34:40.776Z,21.30
2022-10-04T23:39:45.137Z,21.30
2022-10-04T23:44:51.012Z,21.30
2022-10-04T23:49:54.533Z,21.20
2022-10-04T23:54:59.591Z,21.30
